Аэропорт: Омск-Центральный. Омск

ICAO: UNOO

METAR:
2018/07/22 20:00
UNOO 222000Z 35004MPS 9999 BKN033CB 11/08 Q1008 R07/290150 NOSIG RMK QFE748
METAR:
2018/07/22 18:37
TAF UNOO 221650Z 2218/2318 01008G13MPS 4000 -SHRA BKN008 BKN020CB